sensor_id;sensor_type;location;lat;lon;timestamp;temperature;humidity
29295;DHT22;16305;48.566;8.846;2022-11-20T00:01:12;3.30;99.90
29295;DHT22;16305;48.566;8.846;2022-11-20T00:03:38;3.30;99.90
29295;DHT22;16305;48.566;8.846;2022-11-20T00:06:06;3.30;99.90
29295;DHT22;16305;48.566;8.846;2022-11-20T00:08:32;3.10;99.90
29295;DHT22;16305;48.566;8.846;2022-11-20T00:11:23;2.80;99.90
29295;DHT22;16305;48.566;8.846;2022-11-20T00:13:53;2.70;99.90
29295;DHT22;16305;48.566;8.846;2022-11-20T00:16:21;2.80;99.90
29295;DHT22;16305;48.566;8.846;2022-11-20T00:18:47;2.90;99.90
29295;DHT22;16305;48.566;8.846;2022-11-20T00:21:24;2.90;99.90
29295;DHT22;16305;48.566;8.846;2022-11-20T00:23:52;2.90;99.90
29295;DHT22;16305;48.566;8.846;2022-11-20T00:26:20;2.90;99.90
29295;DHT22;16305;48.566;8.846;2022-11-20T00:28:57;2.90;99.90
29295;DHT22;16305;48.566;8.846;2022-11-20T00:31:23;2.90;99.90
29295;DHT22;16305;48.566;8.846;2022-11-20T00:33:49;3.00;99.90
29295;DHT22;16305;48.566;8.846;2022-11-20T00:36:20;3.00;99.90
29295;DHT22;16305;48.566;8.846;2022-11-20T00:38:46;2.90;99.90
29295;DHT22;16305;48.566;8.846;2022-11-20T00:41:14;2.90;99.90
29295;DHT22;16305;48.566;8.846;2022-11-20T00:43:41;2.90;99.90
29295;DHT22;16305;48.566;8.846;2022-11-20T00:46:09;3.00;99.90
29295;DHT22;16305;48.566;8.846;2022-11-20T00:48:34;3.00;99.90
29295;DHT22;16305;48.566;8.846;2022-11-20T00:51:00;3.00;99.90
29295;DHT22;16305;48.566;8.846;2022-11-20T00:53:26;2.90;99.90
29295;DHT22;16305;48.566;8.846;2022-11-20T00:55:56;2.90;99.90
29295;DHT22;16305;48.566;8.846;2022-11-20T00:58:23;2.90;99.90
29295;DHT22;16305;48.566;8.846;2022-11-20T01:00:49;2.60;99.90
29295;DHT22;16305;48.566;8.846;2022-11-20T01:03:17;2.30;99.90
29295;DHT22;16305;48.566;8.846;2022-11-20T01:05:43;2.20;99.90
29295;DHT22;16305;48.566;8.846;2022-11-20T01:08:09;2.30;99.90
29295;DHT22;16305;48.566;8.846;2022-11-20T01:10:35;2.40;99.90
29295;DHT22;16305;48.566;8.846;2022-11-20T01:13:00;2.50;99.90
29295;DHT22;16305;48.566;8.846;2022-11-20T01:15:44;2.60;99.90
29295;DHT22;16305;48.566;8.846;2022-11-20T01:18:10;2.60;99.90
29295;DHT22;16305;48.566;8.846;2022-11-20T01:20:36;2.60;99.90
29295;DHT22;16305;48.566;8.846;2022-11-20T01:23:02;2.70;99.90
29295;DHT22;16305;48.566;8.846;2022-11-20T01:25:28;2.70;99.90
29295;DHT22;16305;48.566;8.846;2022-11-20T01:27:54;2.70;99.90
29295;DHT22;16305;48.566;8.846;2022-11-20T01:30:19;2.60;99.90
29295;DHT22;16305;48.566;8.846;2022-11-20T01:32:45;2.60;99.90
29295;DHT22;16305;48.566;8.846;2022-11-20T01:35:10;2.60;99.90
29295;DHT22;16305;48.566;8.846;2022-11-20T01:37:36;2.50;99.90
29295;DHT22;16305;48.566;8.846;2022-11-20T01:40:02;2.40;99.90
29295;DHT22;16305;48.566;8.846;2022-11-20T01:42:28;2.40;99.90
29295;DHT22;16305;48.566;8.846;2022-11-20T01:48:16;2.30;99.90
29295;DHT22;16305;48.566;8.846;2022-11-20T01:50:42;2.30;99.90
29295;DHT22;16305;48.566;8.846;2022-11-20T01:53:11;2.30;99.90
29295;DHT22;16305;48.566;8.846;2022-11-20T01:55:45;2.30;99.90
29295;DHT22;16305;48.566;8.846;2022-11-20T01:58:13;2.30;99.90
29295;DHT22;16305;48.566;8.846;2022-11-20T02:00:40;2.30;99.90
29295;DHT22;16305;48.566;8.846;2022-11-20T02:03:08;2.20;99.90
29295;DHT22;16305;48.566;8.846;2022-11-20T02:05:42;2.20;99.90
29295;DHT22;16305;48.566;8.846;2022-11-20T02:08:08;2.20;99.90
29295;DHT22;16305;48.566;8.846;2022-11-20T02:10:34;2.20;99.90
29295;DHT22;16305;48.566;8.846;2022-11-20T02:12:59;2.20;99.90
29295;DHT22;16305;48.566;8.846;2022-11-20T02:15:44;2.20;99.90
29295;DHT22;16305;48.566;8.846;2022-11-20T02:18:11;2.20;99.90
29295;DHT22;16305;48.566;8.846;2022-11-20T02:20:41;2.10;99.90
29295;DHT22;16305;48.566;8.846;2022-11-20T02:25:36;2.20;99.90
29295;DHT22;16305;48.566;8.846;2022-11-20T02:28:03;2.30;99.90
29295;DHT22;16305;48.566;8.846;2022-11-20T02:30:29;2.40;99.90
29295;DHT22;16305;48.566;8.846;2022-11-20T02:32:54;2.40;99.90
29295;DHT22;16305;48.566;8.846;2022-11-20T02:37:51;2.30;99.90
29295;DHT22;16305;48.566;8.846;2022-11-20T02:40:18;2.30;99.90
29295;DHT22;16305;48.566;8.846;2022-11-20T02:42:43;2.20;99.90
29295;DHT22;16305;48.566;8.846;2022-11-20T02:45:09;2.20;99.90
29295;DHT22;16305;48.566;8.846;2022-11-20T02:47:35;2.10;99.90
29295;DHT22;16305;48.566;8.846;2022-11-20T02:50:01;2.10;99.90
29295;DHT22;16305;48.566;8.846;2022-11-20T02:52:26;2.00;99.90
29295;DHT22;16305;48.566;8.846;2022-11-20T02:54:52;2.00;99.90
29295;DHT22;16305;48.566;8.846;2022-11-20T02:57:18;2.00;99.90
29295;DHT22;16305;48.566;8.846;2022-11-20T02:59:43;2.00;99.90
29295;DHT22;16305;48.566;8.846;2022-11-20T03:02:09;2.10;99.90
29295;DHT22;16305;48.566;8.846;2022-11-20T03:04:34;2.10;99.90
29295;DHT22;16305;48.566;8.846;2022-11-20T03:07:00;2.10;99.90
29295;DHT22;16305;48.566;8.846;2022-11-20T03:09:25;2.10;99.90
29295;DHT22;16305;48.566;8.846;2022-11-20T03:11:51;2.10;99.90
29295;DHT22;16305;48.566;8.846;2022-11-20T03:14:17;2.20;99.90
29295;DHT22;16305;48.566;8.846;2022-11-20T03:16:42;2.20;99.90
29295;DHT22;16305;48.566;8.846;2022-11-20T03:19:08;2.10;99.90
29295;DHT22;16305;48.566;8.846;2022-11-20T03:21:34;2.00;99.90
29295;DHT22;16305;48.566;8.846;2022-11-20T03:24:00;2.10;99.90
29295;DHT22;16305;48.566;8.846;2022-11-20T03:26:26;2.20;99.90
29295;DHT22;16305;48.566;8.846;2022-11-20T03:28:56;2.20;99.90
29295;DHT22;16305;48.566;8.846;2022-11-20T03:31:25;2.30;99.90
29295;DHT22;16305;48.566;8.846;2022-11-20T03:33:51;2.30;99.90
29295;DHT22;16305;48.566;8.846;2022-11-20T03:36:19;2.40;99.90
29295;DHT22;16305;48.566;8.846;2022-11-20T03:38:44;2.40;99.90
29295;DHT22;16305;48.566;8.846;2022-11-20T03:41:12;2.40;99.90
29295;DHT22;16305;48.566;8.846;2022-11-20T03:43:39;2.50;99.90
29295;DHT22;16305;48.566;8.846;2022-11-20T03:46:05;2.50;99.90
29295;DHT22;16305;48.566;8.846;2022-11-20T03:48:31;2.50;99.90
29295;DHT22;16305;48.566;8.846;2022-11-20T03:51:17;2.60;99.90
29295;DHT22;16305;48.566;8.846;2022-11-20T03:53:44;2.60;99.90
29295;DHT22;16305;48.566;8.846;2022-11-20T03:56:11;2.70;99.90
29295;DHT22;16305;48.566;8.846;2022-11-20T03:58:38;2.70;99.90
29295;DHT22;16305;48.566;8.846;2022-11-20T04:01:18;2.70;99.90
29295;DHT22;16305;48.566;8.846;2022-11-20T04:03:44;2.70;99.90
29295;DHT22;16305;48.566;8.846;2022-11-20T04:06:16;2.70;99.90
29295;DHT22;16305;48.566;8.846;2022-11-20T04:08:42;2.70;99.90
29295;DHT22;16305;48.566;8.846;2022-11-20T04:11:35;2.80;99.90
29295;DHT22;16305;48.566;8.846;2022-11-20T04:14:05;2.80;99.90
29295;DHT22;16305;48.566;8.846;2022-11-20T04:16:35;2.90;99.90
29295;DHT22;16305;48.566;8.846;2022-11-20T04:19:02;3.00;99.90
29295;DHT22;16305;48.566;8.846;2022-11-20T04:21:28;2.90;99.90
29295;DHT22;16305;48.566;8.846;2022-11-20T04:23:55;2.90;99.90
29295;DHT22;16305;48.566;8.846;2022-11-20T04:26:23;2.90;99.90
29295;DHT22;16305;48.566;8.846;2022-11-20T04:28:49;2.80;99.90
29295;DHT22;16305;48.566;8.846;2022-11-20T04:31:17;2.90;99.90
29295;DHT22;16305;48.566;8.846;2022-11-20T04:33:43;2.80;99.90
29295;DHT22;16305;48.566;8.846;2022-11-20T04:38:42;2.90;99.90
29295;DHT22;16305;48.566;8.846;2022-11-20T04:41:12;2.80;99.90
29295;DHT22;16305;48.566;8.846;2022-11-20T04:43:39;2.80;99.90
29295;DHT22;16305;48.566;8.846;2022-11-20T04:46:05;2.80;99.90
29295;DHT22;16305;48.566;8.846;2022-11-20T04:48:30;2.80;99.90
29295;DHT22;16305;48.566;8.846;2022-11-20T04:50:56;2.90;99.90
29295;DHT22;16305;48.566;8.846;2022-11-20T04:53:23;2.90;99.90
29295;DHT22;16305;48.566;8.846;2022-11-20T04:55:49;2.80;99.90
29295;DHT22;16305;48.566;8.846;2022-11-20T04:58:15;2.80;99.90
29295;DHT22;16305;48.566;8.846;2022-11-20T05:00:41;2.90;99.90
29295;DHT22;16305;48.566;8.846;2022-11-20T05:03:06;2.80;99.90
29295;DHT22;16305;48.566;8.846;2022-11-20T05:05:34;2.80;99.90
29295;DHT22;16305;48.566;8.846;2022-11-20T05:08:00;2.80;99.90
29295;DHT22;16305;48.566;8.846;2022-11-20T05:10:26;2.80;99.90
29295;DHT22;16305;48.566;8.846;2022-11-20T05:12:52;2.80;99.90
29295;DHT22;16305;48.566;8.846;2022-11-20T05:15:17;2.90;99.90
29295;DHT22;16305;48.566;8.846;2022-11-20T05:17:48;2.90;99.90
29295;DHT22;16305;48.566;8.846;2022-11-20T05:20:13;2.90;99.90
29295;DHT22;16305;48.566;8.846;2022-11-20T05:22:39;3.00;99.90
29295;DHT22;16305;48.566;8.846;2022-11-20T05:25:04;2.90;99.90
29295;DHT22;16305;48.566;8.846;2022-11-20T05:27:30;2.90;99.90
29295;DHT22;16305;48.566;8.846;2022-11-20T05:29:55;2.90;99.90
29295;DHT22;16305;48.566;8.846;2022-11-20T05:32:21;2.90;99.90
29295;DHT22;16305;48.566;8.846;2022-11-20T05:34:51;3.00;99.90
29295;DHT22;16305;48.566;8.846;2022-11-20T05:37:16;2.90;99.90
29295;DHT22;16305;48.566;8.846;2022-11-20T05:39:42;2.90;99.90
29295;DHT22;16305;48.566;8.846;2022-11-20T05:42:07;2.90;99.90
29295;DHT22;16305;48.566;8.846;2022-11-20T05:44:51;2.90;99.90
29295;DHT22;16305;48.566;8.846;2022-11-20T05:47:17;2.90;99.90
29295;DHT22;16305;48.566;8.846;2022-11-20T05:49:43;2.90;99.90
29295;DHT22;16305;48.566;8.846;2022-11-20T05:52:08;2.90;99.90
29295;DHT22;16305;48.566;8.846;2022-11-20T05:54:34;3.00;99.90
29295;DHT22;16305;48.566;8.846;2022-11-20T05:56:59;3.00;99.90
29295;DHT22;16305;48.566;8.846;2022-11-20T05:59:25;3.00;99.90
29295;DHT22;16305;48.566;8.846;2022-11-20T06:01:50;2.90;99.90
29295;DHT22;16305;48.566;8.846;2022-11-20T06:04:16;2.90;99.90
29295;DHT22;16305;48.566;8.846;2022-11-20T06:06:41;3.00;99.90
29295;DHT22;16305;48.566;8.846;2022-11-20T06:09:07;2.90;99.90
29295;DHT22;16305;48.566;8.846;2022-11-20T06:11:33;3.00;99.90
29295;DHT22;16305;48.566;8.846;2022-11-20T06:13:58;3.00;99.90
29295;DHT22;16305;48.566;8.846;2022-11-20T06:16:24;3.00;99.90
29295;DHT22;16305;48.566;8.846;2022-11-20T06:18:49;3.10;99.90
29295;DHT22;16305;48.566;8.846;2022-11-20T06:21:17;3.20;99.90
29295;DHT22;16305;48.566;8.846;2022-11-20T06:23:43;3.30;99.90
29295;DHT22;16305;48.566;8.846;2022-11-20T06:26:14;3.40;99.90
29295;DHT22;16305;48.566;8.846;2022-11-20T06:28:40;3.50;99.90
29295;DHT22;16305;48.566;8.846;2022-11-20T06:31:07;3.60;99.90
29295;DHT22;16305;48.566;8.846;2022-11-20T06:33:33;3.70;99.90
29295;DHT22;16305;48.566;8.846;2022-11-20T06:35:59;3.70;99.90
29295;DHT22;16305;48.566;8.846;2022-11-20T06:38:26;3.80;99.90
29295;DHT22;16305;48.566;8.846;2022-11-20T06:40:52;3.90;99.90
29295;DHT22;16305;48.566;8.846;2022-11-20T06:43:17;4.00;99.90
29295;DHT22;16305;48.566;8.846;2022-11-20T06:45:43;4.00;99.90
29295;DHT22;16305;48.566;8.846;2022-11-20T06:48:09;4.20;99.90
29295;DHT22;16305;48.566;8.846;2022-11-20T06:50:36;4.10;99.90
29295;DHT22;16305;48.566;8.846;2022-11-20T06:53:03;4.10;99.90
29295;DHT22;16305;48.566;8.846;2022-11-20T06:55:29;4.10;99.90
29295;DHT22;16305;48.566;8.846;2022-11-20T06:57:55;4.10;99.90
29295;DHT22;16305;48.566;8.846;2022-11-20T07:00:20;4.00;99.90
29295;DHT22;16305;48.566;8.846;2022-11-20T07:02:46;4.00;99.90
29295;DHT22;16305;48.566;8.846;2022-11-20T07:05:11;4.00;99.90
29295;DHT22;16305;48.566;8.846;2022-11-20T07:07:37;4.10;99.90
29295;DHT22;16305;48.566;8.846;2022-11-20T07:10:02;4.10;99.90
29295;DHT22;16305;48.566;8.846;2022-11-20T07:12:28;4.20;99.90
29295;DHT22;16305;48.566;8.846;2022-11-20T07:14:54;4.30;99.90
29295;DHT22;16305;48.566;8.846;2022-11-20T07:17:20;4.40;99.90
29295;DHT22;16305;48.566;8.846;2022-11-20T07:19:45;4.50;99.90
29295;DHT22;16305;48.566;8.846;2022-11-20T07:22:11;4.50;99.90
29295;DHT22;16305;48.566;8.846;2022-11-20T07:24:36;4.60;99.90
29295;DHT22;16305;48.566;8.846;2022-11-20T07:27:02;4.60;99.90
29295;DHT22;16305;48.566;8.846;2022-11-20T07:29:27;4.60;99.90
29295;DHT22;16305;48.566;8.846;2022-11-20T07:31:53;4.70;99.90
29295;DHT22;16305;48.566;8.846;2022-11-20T07:34:20;4.70;99.90
29295;DHT22;16305;48.566;8.846;2022-11-20T07:36:46;4.70;99.90
29295;DHT22;16305;48.566;8.846;2022-11-20T07:39:11;4.70;99.90
29295;DHT22;16305;48.566;8.846;2022-11-20T07:41:37;4.70;99.90
29295;DHT22;16305;48.566;8.846;2022-11-20T07:44:03;4.70;99.90
29295;DHT22;16305;48.566;8.846;2022-11-20T07:46:28;4.70;99.90
29295;DHT22;16305;48.566;8.846;2022-11-20T07:48:54;4.70;99.90
29295;DHT22;16305;48.566;8.846;2022-11-20T07:51:19;4.80;99.90
29295;DHT22;16305;48.566;8.846;2022-11-20T07:53:45;4.80;99.90
29295;DHT22;16305;48.566;8.846;2022-11-20T07:56:10;4.80;99.90
29295;DHT22;16305;48.566;8.846;2022-11-20T07:58:36;4.80;99.90
29295;DHT22;16305;48.566;8.846;2022-11-20T08:01:06;4.80;99.90
29295;DHT22;16305;48.566;8.846;2022-11-20T08:03:32;4.80;99.90
29295;DHT22;16305;48.566;8.846;2022-11-20T08:06:01;4.80;99.90
29295;DHT22;16305;48.566;8.846;2022-11-20T08:08:27;4.80;99.90
29295;DHT22;16305;48.566;8.846;2022-11-20T08:10:53;4.80;99.90
29295;DHT22;16305;48.566;8.846;2022-11-20T08:13:39;4.80;99.90
29295;DHT22;16305;48.566;8.846;2022-11-20T08:16:23;4.70;99.90
29295;DHT22;16305;48.566;8.846;2022-11-20T08:18:48;4.80;99.90
29295;DHT22;16305;48.566;8.846;2022-11-20T08:21:14;4.80;99.90
29295;DHT22;16305;48.566;8.846;2022-11-20T08:23:40;4.80;99.90
29295;DHT22;16305;48.566;8.846;2022-11-20T08:26:05;4.80;99.90
29295;DHT22;16305;48.566;8.846;2022-11-20T08:28:31;4.80;99.90
29295;DHT22;16305;48.566;8.846;2022-11-20T08:31:01;4.80;99.90
29295;DHT22;16305;48.566;8.846;2022-11-20T08:33:27;4.90;99.90
29295;DHT22;16305;48.566;8.846;2022-11-20T08:35:52;4.90;99.90
29295;DHT22;16305;48.566;8.846;2022-11-20T08:38:18;4.90;99.90
29295;DHT22;16305;48.566;8.846;2022-11-20T08:40:43;5.00;99.90
29295;DHT22;16305;48.566;8.846;2022-11-20T08:43:32;5.00;99.90
29295;DHT22;16305;48.566;8.846;2022-11-20T08:45:57;5.10;99.90
29295;DHT22;16305;48.566;8.846;2022-11-20T08:48:23;5.10;99.90
29295;DHT22;16305;48.566;8.846;2022-11-20T08:50:48;5.10;99.90
29295;DHT22;16305;48.566;8.846;2022-11-20T08:53:14;5.20;99.90
29295;DHT22;16305;48.566;8.846;2022-11-20T08:55:39;5.20;99.90
29295;DHT22;16305;48.566;8.846;2022-11-20T08:58:06;5.20;99.90
29295;DHT22;16305;48.566;8.846;2022-11-20T09:00:33;5.20;99.90
29295;DHT22;16305;48.566;8.846;2022-11-20T09:02:58;5.20;99.90
29295;DHT22;16305;48.566;8.846;2022-11-20T09:05:26;5.20;99.90
29295;DHT22;16305;48.566;8.846;2022-11-20T09:07:52;5.20;99.90
29295;DHT22;16305;48.566;8.846;2022-11-20T09:10:17;5.20;99.90
29295;DHT22;16305;48.566;8.846;2022-11-20T09:12:43;5.20;99.90
29295;DHT22;16305;48.566;8.846;2022-11-20T09:15:09;5.20;99.90
29295;DHT22;16305;48.566;8.846;2022-11-20T09:17:36;5.20;99.90
29295;DHT22;16305;48.566;8.846;2022-11-20T09:20:02;5.20;99.90
29295;DHT22;16305;48.566;8.846;2022-11-20T09:22:27;5.20;99.90
29295;DHT22;16305;48.566;8.846;2022-11-20T09:24:53;5.20;99.90
29295;DHT22;16305;48.566;8.846;2022-11-20T09:27:19;5.20;99.90
29295;DHT22;16305;48.566;8.846;2022-11-20T09:29:47;5.20;99.90
29295;DHT22;16305;48.566;8.846;2022-11-20T09:32:13;5.20;99.90
29295;DHT22;16305;48.566;8.846;2022-11-20T09:34:38;5.20;99.90
29295;DHT22;16305;48.566;8.846;2022-11-20T09:37:04;5.20;99.90
29295;DHT22;16305;48.566;8.846;2022-11-20T09:39:29;5.20;99.90
29295;DHT22;16305;48.566;8.846;2022-11-20T09:42:23;5.20;99.90
29295;DHT22;16305;48.566;8.846;2022-11-20T09:55:40;5.30;99.90
29295;DHT22;16305;48.566;8.846;2022-11-20T09:58:15;5.30;99.90
29295;DHT22;16305;48.566;8.846;2022-11-20T10:00:42;5.30;99.90
29295;DHT22;16305;48.566;8.846;2022-11-20T10:03:17;5.30;99.90
29295;DHT22;16305;48.566;8.846;2022-11-20T10:05:50;5.30;99.90
29295;DHT22;16305;48.566;8.846;2022-11-20T10:08:22;5.30;99.90
29295;DHT22;16305;48.566;8.846;2022-11-20T10:11:26;5.40;99.90
29295;DHT22;16305;48.566;8.846;2022-11-20T10:17:00;5.60;99.90
29295;DHT22;16305;48.566;8.846;2022-11-20T10:19:54;5.60;99.90
29295;DHT22;16305;48.566;8.846;2022-11-20T10:25:13;5.80;99.90
29295;DHT22;16305;48.566;8.846;2022-11-20T10:30:26;6.00;99.90
29295;DHT22;16305;48.566;8.846;2022-11-20T10:32:57;6.20;99.90
29295;DHT22;16305;48.566;8.846;2022-11-20T10:35:38;6.30;99.90
29295;DHT22;16305;48.566;8.846;2022-11-20T10:38:19;6.00;99.90
29295;DHT22;16305;48.566;8.846;2022-11-20T10:40:50;6.10;99.90
29295;DHT22;16305;48.566;8.846;2022-11-20T10:43:21;6.10;99.90
29295;DHT22;16305;48.566;8.846;2022-11-20T10:45:56;6.20;99.90
29295;DHT22;16305;48.566;8.846;2022-11-20T10:48:25;6.40;99.90
29295;DHT22;16305;48.566;8.846;2022-11-20T10:51:08;6.60;99.90
29295;DHT22;16305;48.566;8.846;2022-11-20T10:56:52;6.70;99.90
29295;DHT22;16305;48.566;8.846;2022-11-20T10:59:25;6.60;99.90
29295;DHT22;16305;48.566;8.846;2022-11-20T11:01:52;6.60;99.90
29295;DHT22;16305;48.566;8.846;2022-11-20T11:04:37;6.50;99.90
29295;DHT22;16305;48.566;8.846;2022-11-20T11:07:12;6.50;99.90
29295;DHT22;16305;48.566;8.846;2022-11-20T11:09:46;6.50;99.90
29295;DHT22;16305;48.566;8.846;2022-11-20T11:12:12;6.60;99.90
29295;DHT22;16305;48.566;8.846;2022-11-20T11:14:46;6.80;99.90
29295;DHT22;16305;48.566;8.846;2022-11-20T11:17:30;7.00;99.90
29295;DHT22;16305;48.566;8.846;2022-11-20T11:20:15;7.10;99.90
29295;DHT22;16305;48.566;8.846;2022-11-20T11:22:53;8.00;99.90
29295;DHT22;16305;48.566;8.846;2022-11-20T11:27:49;9.00;99.90
29295;DHT22;16305;48.566;8.846;2022-11-20T11:30:18;9.00;99.90
29295;DHT22;16305;48.566;8.846;2022-11-20T11:32:44;8.90;99.90
29295;DHT22;16305;48.566;8.846;2022-11-20T11:35:25;8.80;99.90
29295;DHT22;16305;48.566;8.846;2022-11-20T11:38:16;9.30;99.90
29295;DHT22;16305;48.566;8.846;2022-11-20T11:40:40;9.90;99.90
29295;DHT22;16305;48.566;8.846;2022-11-20T11:43:15;10.20;99.90
29295;DHT22;16305;48.566;8.846;2022-11-20T11:46:02;10.50;99.90
29295;DHT22;16305;48.566;8.846;2022-11-20T11:48:29;10.30;99.90
29295;DHT22;16305;48.566;8.846;2022-11-20T11:50:54;9.30;99.90
29295;DHT22;16305;48.566;8.846;2022-11-20T11:53:22;8.90;99.90
29295;DHT22;16305;48.566;8.846;2022-11-20T11:56:02;8.80;99.90
29295;DHT22;16305;48.566;8.846;2022-11-20T12:06:25;6.70;99.90
29295;DHT22;16305;48.566;8.846;2022-11-20T12:09:12;6.60;99.90
29295;DHT22;16305;48.566;8.846;2022-11-20T12:14:18;6.50;99.90
29295;DHT22;16305;48.566;8.846;2022-11-20T12:16:49;6.50;99.90
29295;DHT22;16305;48.566;8.846;2022-11-20T12:19:15;6.50;99.90
29295;DHT22;16305;48.566;8.846;2022-11-20T12:27:36;8.30;99.90
29295;DHT22;16305;48.566;8.846;2022-11-20T12:30:10;9.40;99.90
29295;DHT22;16305;48.566;8.846;2022-11-20T12:40:50;10.00;99.90
29295;DHT22;16305;48.566;8.846;2022-11-20T12:43:26;9.70;99.90
29295;DHT22;16305;48.566;8.846;2022-11-20T12:48:51;8.80;99.90
29295;DHT22;16305;48.566;8.846;2022-11-20T12:54:20;8.80;99.90
29295;DHT22;16305;48.566;8.846;2022-11-20T12:59:27;8.70;99.90
29295;DHT22;16305;48.566;8.846;2022-11-20T13:05:24;9.30;99.90
29295;DHT22;16305;48.566;8.846;2022-11-20T13:07:53;9.40;99.90
29295;DHT22;16305;48.566;8.846;2022-11-20T13:10:39;9.80;99.90
29295;DHT22;16305;48.566;8.846;2022-11-20T13:13:25;9.60;99.90
29295;DHT22;16305;48.566;8.846;2022-11-20T13:16:06;8.50;99.90
29295;DHT22;16305;48.566;8.846;2022-11-20T13:18:39;8.30;99.90
29295;DHT22;16305;48.566;8.846;2022-11-20T13:21:35;7.50;99.90
29295;DHT22;16305;48.566;8.846;2022-11-20T13:24:20;6.90;99.90
29295;DHT22;16305;48.566;8.846;2022-11-20T13:27:18;6.80;99.90
29295;DHT22;16305;48.566;8.846;2022-11-20T13:29:47;6.70;99.90
29295;DHT22;16305;48.566;8.846;2022-11-20T13:32:23;7.10;99.90
29295;DHT22;16305;48.566;8.846;2022-11-20T13:35:00;7.20;99.90
29295;DHT22;16305;48.566;8.846;2022-11-20T13:37:35;7.20;99.90
29295;DHT22;16305;48.566;8.846;2022-11-20T13:42:37;7.30;99.90
29295;DHT22;16305;48.566;8.846;2022-11-20T13:45:42;7.00;99.90
29295;DHT22;16305;48.566;8.846;2022-11-20T13:48:04;7.00;99.90
29295;DHT22;16305;48.566;8.846;2022-11-20T13:53:09;6.90;99.90
29295;DHT22;16305;48.566;8.846;2022-11-20T13:55:54;6.70;99.90
29295;DHT22;16305;48.566;8.846;2022-11-20T13:59:07;6.60;99.90
29295;DHT22;16305;48.566;8.846;2022-11-20T14:01:24;6.40;99.90
29295;DHT22;16305;48.566;8.846;2022-11-20T14:03:50;6.20;99.90
29295;DHT22;16305;48.566;8.846;2022-11-20T14:06:32;6.00;99.90
29295;DHT22;16305;48.566;8.846;2022-11-20T14:08:58;5.90;99.90
29295;DHT22;16305;48.566;8.846;2022-11-20T14:11:29;5.90;99.90
29295;DHT22;16305;48.566;8.846;2022-11-20T14:13:57;5.80;99.90
29295;DHT22;16305;48.566;8.846;2022-11-20T14:16:24;5.80;99.90
29295;DHT22;16305;48.566;8.846;2022-11-20T14:18:50;5.80;99.90
29295;DHT22;16305;48.566;8.846;2022-11-20T14:21:26;5.80;99.90
29295;DHT22;16305;48.566;8.846;2022-11-20T14:24:06;5.80;99.90
29295;DHT22;16305;48.566;8.846;2022-11-20T14:26:41;5.70;99.90
29295;DHT22;16305;48.566;8.846;2022-11-20T14:29:16;5.60;99.90
29295;DHT22;16305;48.566;8.846;2022-11-20T14:31:44;5.70;99.90
29295;DHT22;16305;48.566;8.846;2022-11-20T14:34:17;5.60;99.90
29295;DHT22;16305;48.566;8.846;2022-11-20T14:36:43;5.60;99.90
29295;DHT22;16305;48.566;8.846;2022-11-20T14:39:20;5.60;99.90
29295;DHT22;16305;48.566;8.846;2022-11-20T14:41:53;5.60;99.90
29295;DHT22;16305;48.566;8.846;2022-11-20T14:44:27;5.60;99.90
29295;DHT22;16305;48.566;8.846;2022-11-20T14:46:55;5.60;99.90
29295;DHT22;16305;48.566;8.846;2022-11-20T14:49:21;5.60;99.90
29295;DHT22;16305;48.566;8.846;2022-11-20T14:51:46;5.60;99.90
29295;DHT22;16305;48.566;8.846;2022-11-20T14:54:17;5.60;99.90
29295;DHT22;16305;48.566;8.846;2022-11-20T14:57:00;5.50;99.90
29295;DHT22;16305;48.566;8.846;2022-11-20T14:59:32;5.60;99.90
29295;DHT22;16305;48.566;8.846;2022-11-20T15:02:06;5.50;99.90
29295;DHT22;16305;48.566;8.846;2022-11-20T15:04:43;5.50;99.90
29295;DHT22;16305;48.566;8.846;2022-11-20T15:07:09;5.50;99.90
29295;DHT22;16305;48.566;8.846;2022-11-20T15:09:34;5.50;99.90
29295;DHT22;16305;48.566;8.846;2022-11-20T15:12:01;5.50;99.90
29295;DHT22;16305;48.566;8.846;2022-11-20T15:14:28;5.50;99.90
29295;DHT22;16305;48.566;8.846;2022-11-20T15:16:55;5.40;99.90
29295;DHT22;16305;48.566;8.846;2022-11-20T15:19:25;5.40;99.90
29295;DHT22;16305;48.566;8.846;2022-11-20T15:21:52;5.30;99.90
29295;DHT22;16305;48.566;8.846;2022-11-20T15:24:18;5.40;99.90
29295;DHT22;16305;48.566;8.846;2022-11-20T15:26:44;5.30;99.90
29295;DHT22;16305;48.566;8.846;2022-11-20T15:29:14;5.30;99.90
29295;DHT22;16305;48.566;8.846;2022-11-20T15:31:44;5.30;99.90
29295;DHT22;16305;48.566;8.846;2022-11-20T15:34:16;5.30;99.90
29295;DHT22;16305;48.566;8.846;2022-11-20T15:36:43;5.30;99.90
29295;DHT22;16305;48.566;8.846;2022-11-20T15:39:09;5.20;99.90
29295;DHT22;16305;48.566;8.846;2022-11-20T15:41:35;5.20;99.90
29295;DHT22;16305;48.566;8.846;2022-11-20T15:44:01;5.20;99.90
29295;DHT22;16305;48.566;8.846;2022-11-20T15:46:29;5.20;99.90
29295;DHT22;16305;48.566;8.846;2022-11-20T15:48:56;5.30;99.90
29295;DHT22;16305;48.566;8.846;2022-11-20T15:51:28;5.30;99.90
29295;DHT22;16305;48.566;8.846;2022-11-20T15:53:55;5.30;99.90
29295;DHT22;16305;48.566;8.846;2022-11-20T15:56:21;5.40;99.90
29295;DHT22;16305;48.566;8.846;2022-11-20T15:58:47;5.30;99.90
29295;DHT22;16305;48.566;8.846;2022-11-20T16:01:15;5.30;99.90
29295;DHT22;16305;48.566;8.846;2022-11-20T16:03:41;5.30;99.90
29295;DHT22;16305;48.566;8.846;2022-11-20T16:06:07;5.30;99.90
29295;DHT22;16305;48.566;8.846;2022-11-20T16:08:32;5.30;99.90
29295;DHT22;16305;48.566;8.846;2022-11-20T16:10:58;5.40;99.90
29295;DHT22;16305;48.566;8.846;2022-11-20T16:13:24;5.40;99.90
29295;DHT22;16305;48.566;8.846;2022-11-20T16:16:19;5.30;99.90
29295;DHT22;16305;48.566;8.846;2022-11-20T16:18:46;5.30;99.90
29295;DHT22;16305;48.566;8.846;2022-11-20T16:21:12;5.30;99.90
29295;DHT22;16305;48.566;8.846;2022-11-20T16:23:38;5.30;99.90
29295;DHT22;16305;48.566;8.846;2022-11-20T16:26:15;5.30;99.90
29295;DHT22;16305;48.566;8.846;2022-11-20T16:28:42;5.30;99.90
29295;DHT22;16305;48.566;8.846;2022-11-20T16:31:16;5.30;99.90
29295;DHT22;16305;48.566;8.846;2022-11-20T16:33:42;5.30;99.90
29295;DHT22;16305;48.566;8.846;2022-11-20T16:36:13;5.30;99.90
29295;DHT22;16305;48.566;8.846;2022-11-20T16:38:39;5.30;99.90
29295;DHT22;16305;48.566;8.846;2022-11-20T16:41:05;5.30;99.90
29295;DHT22;16305;48.566;8.846;2022-11-20T16:43:31;5.30;99.90
29295;DHT22;16305;48.566;8.846;2022-11-20T16:45:57;5.30;99.90
29295;DHT22;16305;48.566;8.846;2022-11-20T16:48:22;5.30;99.90
29295;DHT22;16305;48.566;8.846;2022-11-20T16:50:50;5.30;99.90
29295;DHT22;16305;48.566;8.846;2022-11-20T16:53:17;5.30;99.90
29295;DHT22;16305;48.566;8.846;2022-11-20T16:55:43;5.20;99.90
29295;DHT22;16305;48.566;8.846;2022-11-20T16:58:09;5.20;99.90
29295;DHT22;16305;48.566;8.846;2022-11-20T17:05:30;5.20;99.90
29295;DHT22;16305;48.566;8.846;2022-11-20T17:07:56;5.20;99.90
29295;DHT22;16305;48.566;8.846;2022-11-20T17:10:21;5.20;99.90
29295;DHT22;16305;48.566;8.846;2022-11-20T17:12:47;5.20;99.90
29295;DHT22;16305;48.566;8.846;2022-11-20T17:15:12;5.10;99.90
29295;DHT22;16305;48.566;8.846;2022-11-20T17:17:38;5.10;99.90
29295;DHT22;16305;48.566;8.846;2022-11-20T17:20:04;5.10;99.90